Flight Track Log - Related Links

Times and Time Zones

All times are in EDT time to prevent confusion due to time zone crossing. See the EJA727 flight status page for this flight to view local times or setup timezone preferences in your user account.

Time Position Orientation Groundspeed Altitude Reporting Facility
EDT Latitude Longitude Course Direction KTS MPH feet Rate Location/Type
Thu 04:36:53 PM 42.1500 -87.9167 16° North 185 213 2,000  Level Chicago TRACON
Thu 04:37:53 PM 42.1833 -87.8500 56° Northeast 242 278 3,800 1,000 Climbing Chicago TRACON
Thu 04:38:53 PM 42.2167 -87.7667 62° Northeast 249 287 4,000 133 Climbing Chicago TRACON
Thu 04:39:23 PM 42.2356 -87.7275 57° Northeast 246 283 4,000 -65 Level Chicago Center
Thu 04:40:25 PM 42.2703 -87.6483 59° Northeast 247 284 3,900  Descending Chicago Center
Thu 04:41:27 PM 42.3050 -87.5711 59° Northeast 243 280 4,000 919 Climbing Chicago Center
Thu 04:42:00 PM 42.4674 -87.7626 16° North  Level FlightAware Approximate
Thu 04:42:29 PM 42.3386 -87.4889 61° Northeast 254 292 5,800  Level Chicago Center
Thu 04:43:31 PM 42.3839 -87.3828 60° Northeast 289 333 5,900 97 Climbing Chicago Center
Thu 04:44:33 PM 42.4158 -87.2808 67° East 293 337 6,000 48 Climbing Chicago Center
Thu 04:45:35 PM 42.4458 -87.1717 70° East 306 352 6,000 -48 Level Chicago Center
Thu 04:46:37 PM 42.4756 -87.0681 69° East 299 344 5,900 48 Descending Chicago Center
Thu 04:47:40 PM 42.5044 -86.9675 69° East 290 334 6,100 96 Climbing Chicago Center
Thu 04:48:42 PM 42.5383 -86.8472 69° East 287 330 6,100 -48 Level Chicago Center
Thu 04:49:44 PM 42.5686 -86.7436 68° East 296 341 6,000 -48 Descending Chicago Center
Thu 04:50:46 PM 42.5964 -86.6400 70° East 295 339 6,000 48 Level Chicago Center
Thu 04:51:48 PM 42.6239 -86.5389 70° East 289 333 6,100 -484 Climbing Chicago Center
Thu 04:52:50 PM 42.6525 -86.4383 69° East 286 329 5,000 -968 Descending Chicago Center
Thu 04:53:52 PM 42.7022 -86.3319 58° Northeast 282 325 4,100 -823 Descending Chicago Center
Thu 04:54:54 PM 42.7506 -86.2522 50° Northeast 278 320 3,300 -726 Descending Chicago Center
Thu 04:55:56 PM 42.7808 -86.1650 65° Northeast 269 310 2,600 -339 Descending Chicago Center
Thu 04:56:58 PM 42.7922 -86.0822 79° East 240 276 2,600 -290 Level Chicago Center
Thu 04:58:00 PM 42.7736 -86.0250 114° Southeast 208 239 2,000 -726 Descending Chicago Center
Thu 04:59:02 PM 42.7467 -86.0706 231° Southwest 168 193 1,100 -528 Descending Chicago Center
Thu 05:00:05 PM 42.7408 -86.1203 261° West 159 183 900 -190 Descending Chicago Center

Login

Don't have an account? Register now (free) for customized features, flight alerts, and more!